メインページ
METAR-TAF:

METAR-TAF

空港 :

シャーロット, ミシガン州, アメリカ合衆国

緯度: 42-34-28N, 経度: 084-48-41W, 海抜: 271m

現時点の気象観測

当レポートは8分前の13:55(UTC)に作成
西/北西の風 9kt、最大15ktの突風を伴う
気温 -2°C
湿度 74%
気圧 1015 hPa
視程: 16.1km
高度1700ftの雲は散在している
高度3200ftの千切れ雲あり
高度4900ftの曇り

METAR: KFPK 151355Z AUTO 29009G15KT 10SM SCT017 BKN032 OVC049 M02/M06 A2997 RMK AO2 T10221056

時間: 09:03 (14:03 UTC)


TAF: 見つかりません

4,000以上の空港の気象観測と天気予報(METAR報とTAF報)

利用可能な観測所は地図上に黄色い丸と赤い丸で示す。

丸の上にカーソルを重ねると観測所名を参照できる。

次にクリックすると気象観測と天気予報を参照できる。

マップの切り替え:黒色「×」印の緑ボタンをクリックして拡大、「-」印の緑ボタンをクリックして縮小、緑色の三角印をクリックして隣りの地図に切り替え


METAR-TAF: